createdAt,value
2016-04-09T16:56:16.376Z,946.09
2016-04-09T16:57:16.613Z,946.13
2016-04-09T16:58:17.601Z,946.14
2016-04-09T16:59:17.603Z,946.13
2016-04-09T17:00:17.902Z,946.18
2016-04-09T17:01:17.436Z,946.16
2016-04-09T17:02:17.517Z,946.15
2016-04-09T17:03:17.706Z,946.22
2016-04-09T17:04:17.085Z,946.14
2016-04-09T17:05:17.712Z,946.19
2016-04-09T17:06:17.200Z,946.23
2016-04-09T17:07:17.108Z,946.21
2016-04-09T17:08:17.017Z,946.23
2016-04-09T17:09:17.427Z,946.19
2016-04-09T17:10:17.430Z,946.2
2016-04-09T17:11:17.447Z,946.22
2016-04-09T17:12:17.700Z,946.19
2016-04-09T17:13:17.719Z,946.23
2016-04-09T17:14:17.159Z,946.19
2016-04-09T17:15:17.646Z,946.22
2016-04-09T17:16:17.132Z,946.25
2016-04-09T17:17:17.416Z,946.22
2016-04-09T17:18:17.044Z,946.28
2016-04-09T17:19:15.015Z,946.27
2016-04-09T17:20:17.331Z,946.26
2016-04-09T17:21:17.318Z,946.29
2016-04-09T17:22:17.836Z,946.29
2016-04-09T17:23:17.340Z,946.28
2016-04-09T17:24:16.888Z,946.36
2016-04-09T17:25:17.609Z,946.41
2016-04-09T17:26:17.332Z,946.39
2016-04-09T17:27:17.537Z,946.45
2016-04-09T17:28:17.274Z,946.44
2016-04-09T17:29:17.527Z,946.45
2016-04-09T17:30:16.905Z,946.46
2016-04-09T17:31:17.579Z,946.48
2016-04-09T17:32:17.489Z,946.53
2016-04-09T17:33:17.303Z,946.5
2016-04-09T17:34:17.494Z,946.51
2016-04-09T17:35:17.527Z,946.52
2016-04-09T17:36:17.327Z,946.56
2016-04-09T17:37:17.267Z,946.54
2016-04-09T17:38:17.239Z,946.53
2016-04-09T17:39:16.960Z,946.53
2016-04-09T17:40:17.166Z,946.58
2016-04-09T17:41:17.153Z,946.59
2016-04-09T17:42:16.922Z,946.61
2016-04-09T17:43:17.096Z,946.63
2016-04-09T17:44:17.177Z,946.61
2016-04-09T17:45:17.274Z,946.63
2016-04-09T17:46:17.245Z,946.69
2016-04-09T17:47:16.982Z,946.68
2016-04-09T17:48:17.250Z,946.68
2016-04-09T17:49:16.878Z,946.69
2016-04-09T17:50:16.677Z,946.65
2016-04-09T17:51:17.415Z,946.69
2016-04-09T17:52:16.683Z,946.73
2016-04-09T17:53:16.952Z,946.72
2016-04-09T17:54:17.235Z,946.7
2016-04-09T17:55:17.581Z,946.69
2016-04-09T17:56:17.271Z,946.7
2016-04-09T17:58:17.167Z,946.74
2016-04-09T17:59:17.420Z,946.75
2016-04-09T18:00:16.860Z,946.77
2016-04-09T18:01:16.598Z,946.81
2016-04-09T18:02:17.100Z,946.81
2016-04-09T18:03:17.087Z,946.82
2016-04-09T18:04:17.168Z,946.82
2016-04-09T18:05:17.171Z,946.83
2016-04-09T18:06:16.517Z,946.8
2016-04-09T18:07:17.083Z,946.84
2016-04-09T18:08:16.805Z,946.81
2016-04-09T18:09:16.511Z,946.83
2016-04-09T18:10:16.560Z,946.85
2016-04-09T18:11:17.079Z,946.85
2016-04-09T18:12:16.472Z,946.92
2016-04-09T18:13:17.037Z,946.96
2016-04-09T18:14:16.665Z,946.96
2016-04-09T18:15:16.465Z,947.01
2016-04-09T18:16:16.639Z,947
2016-04-09T18:17:14.517Z,947
2016-04-09T18:18:16.488Z,947.05
2016-04-09T18:19:14.412Z,947
2016-04-09T18:20:16.493Z,946.98
2016-04-09T18:21:16.761Z,947.02
2016-04-09T18:22:17.045Z,947.06
2016-04-09T18:23:17.080Z,946.98
2016-04-09T18:24:17.019Z,947.04
2016-04-09T18:25:14.600Z,947.01
2016-04-09T18:26:14.385Z,947.04
2016-04-09T18:27:14.590Z,947.07
2016-04-09T18:28:14.390Z,947.04
2016-04-09T18:29:15.611Z,947.09
2016-04-09T18:30:15.363Z,947.09
2016-04-09T18:31:14.351Z,947.09
2016-04-09T18:32:15.088Z,947.15
2016-04-09T18:33:15.528Z,947.13
2016-04-09T18:34:14.374Z,947.11
2016-04-09T18:35:15.174Z,947.13
2016-04-09T18:36:15.129Z,947.06
2016-04-09T18:37:14.351Z,947.08
2016-04-09T18:38:14.323Z,947.09
2016-04-09T18:39:14.326Z,947.11
2016-04-09T18:40:14.516Z,947.11
2016-04-09T18:41:14.300Z,947.04
2016-04-09T18:42:14.240Z,947.13
2016-04-09T18:43:14.259Z,947.15
2016-04-09T18:44:14.479Z,947.15
2016-04-09T18:45:14.264Z,947.18
2016-04-09T18:46:14.439Z,947.16
2016-04-09T18:47:14.207Z,947.16
2016-04-09T18:48:14.178Z,947.22
2016-04-09T18:49:14.212Z,947.18
2016-04-09T18:50:14.200Z,947.14
2016-04-09T18:51:14.140Z,947.18
2016-04-09T18:52:14.173Z,947.16
2016-04-09T18:53:14.176Z,947.2
2016-04-09T18:54:14.116Z,947.2
2016-04-09T18:55:14.103Z,947.17
2016-04-09T18:56:14.137Z,947.22
2016-04-09T18:57:14.124Z,947.23
2016-04-09T18:58:14.127Z,947.24
2016-04-09T18:59:14.098Z,947.25
2016-04-09T19:00:14.070Z,947.22
2016-04-09T19:01:14.088Z,947.25
2016-04-09T19:02:14.200Z,947.25
2016-04-09T19:03:14.013Z,947.24
2016-04-09T19:04:14.047Z,947.3
2016-04-09T19:05:15.098Z,947.33
2016-04-09T19:06:14.320Z,947.35
2016-04-09T19:07:14.038Z,947.34
2016-04-09T19:08:13.948Z,947.32
2016-04-09T19:09:13.998Z,947.33
2016-04-09T19:10:13.984Z,947.34
2016-04-09T19:11:14.799Z,947.32
2016-04-09T19:12:13.912Z,947.4
2016-04-09T19:13:13.945Z,947.4
2016-04-09T19:14:14.761Z,947.39
2016-04-09T19:15:14.685Z,947.36
2016-04-09T19:16:13.892Z,947.37
2016-04-09T19:17:13.879Z,947.37
2016-04-09T19:18:13.834Z,947.37
2016-04-09T19:19:13.837Z,947.34
2016-04-09T19:20:13.840Z,947.36
2016-04-09T19:21:13.842Z,947.35
2016-04-09T19:22:13.844Z,947.4
2016-04-09T19:23:14.036Z,947.4
2016-04-09T19:24:13.803Z,947.38
2016-04-09T19:25:13.791Z,947.38
2016-04-09T19:26:13.778Z,947.4
2016-04-09T19:27:13.781Z,947.43
2016-04-09T19:28:13.736Z,947.39
2016-04-09T19:29:14.660Z,947.41
2016-04-09T19:30:13.725Z,947.41
2016-04-09T19:31:13.713Z,947.42
2016-04-09T19:32:14.669Z,947.41
2016-04-09T19:33:13.952Z,947.44
2016-04-09T19:34:13.690Z,947.4
2016-04-09T19:35:13.708Z,947.38
2016-04-09T19:36:13.664Z,947.34
2016-04-09T19:37:13.635Z,947.38
2016-04-09T19:38:13.638Z,947.37
2016-04-09T19:39:13.609Z,947.39
2016-04-09T19:40:13.643Z,947.4
2016-04-09T19:41:13.646Z,947.41
2016-04-09T19:42:13.618Z,947.43
2016-04-09T19:43:13.808Z,947.41
2016-04-09T19:44:13.560Z,947.36
2016-04-09T19:45:13.548Z,947.39
2016-04-09T19:46:13.472Z,947.39
2016-04-09T19:47:13.553Z,947.37
2016-04-09T19:48:13.524Z,947.36
2016-04-09T19:49:13.512Z,947.36
2016-04-09T19:50:13.514Z,947.39
2016-04-09T19:51:13.579Z,947.37
2016-04-09T19:52:13.457Z,947.41
2016-04-09T19:53:13.725Z,947.37
2016-04-09T19:54:14.072Z,947.39
2016-04-09T19:55:13.450Z,947.36
2016-04-09T19:56:13.436Z,947.39
2016-04-09T19:57:13.408Z,947.38
2016-04-09T19:58:13.411Z,947.37
2016-04-09T19:59:13.398Z,947.35
2016-04-09T20:00:13.603Z,947.37
2016-04-09T20:01:14.293Z,947.39
2016-04-09T20:02:13.343Z,947.39
2016-04-09T20:03:14.205Z,947.41
2016-04-09T20:04:13.333Z,947.41
2016-04-09T20:05:13.492Z,947.38
2016-04-09T20:06:13.354Z,947.4
2016-04-09T20:07:13.310Z,947.36
2016-04-09T20:08:13.532Z,947.36
2016-04-09T20:09:13.268Z,947.41
2016-04-09T20:10:13.333Z,947.43
2016-04-09T20:11:13.493Z,947.4
2016-04-09T20:12:13.558Z,947.39
2016-04-09T20:13:13.310Z,947.4
2016-04-09T20:14:13.501Z,947.39
2016-04-09T20:15:13.471Z,947.4
2016-04-09T20:16:13.178Z,947.39
2016-04-09T20:17:13.509Z,947.42
2016-04-09T20:18:13.573Z,947.41
2016-04-09T20:19:13.154Z,947.39
2016-04-09T20:20:13.610Z,947.46
2016-04-09T20:21:13.410Z,947.44
2016-04-09T20:22:13.444Z,947.37
2016-04-09T20:23:13.540Z,947.38
2016-04-09T20:24:13.636Z,947.37
2016-04-09T20:25:13.702Z,947.36
2016-04-09T20:26:13.611Z,947.41
2016-04-09T20:27:13.676Z,947.37
2016-04-09T20:28:13.710Z,947.37
2016-04-09T20:29:13.759Z,947.39
2016-04-09T20:30:14.153Z,947.38
2016-04-09T20:31:13.968Z,947.39
2016-04-09T20:32:13.939Z,947.38
2016-04-09T20:33:14.005Z,947.44
2016-04-09T20:34:14.008Z,947.42
2016-04-09T20:35:13.666Z,947.43
2016-04-09T20:36:13.763Z,947.43
2016-04-09T20:37:12.952Z,947.43
2016-04-09T20:38:12.878Z,947.42
2016-04-09T20:39:12.911Z,947.48
2016-04-09T20:40:13.883Z,947.42
2016-04-09T20:41:13.495Z,947.46
2016-04-09T20:42:12.857Z,947.48
2016-04-09T20:43:12.813Z,947.49
2016-04-09T20:44:12.816Z,947.42
2016-04-09T20:45:13.709Z,947.42
2016-04-09T20:46:12.820Z,947.38
2016-04-09T20:47:13.808Z,947.4
2016-04-09T20:48:12.795Z,947.4
2016-04-09T20:49:12.782Z,947.45
2016-04-09T20:50:12.769Z,947.35
2016-04-09T20:51:13.568Z,947.41
2016-04-09T20:52:12.759Z,947.44
2016-04-09T20:53:12.762Z,947.44
2016-04-09T20:54:12.718Z,947.42
2016-04-09T20:55:12.673Z,947.42
2016-04-09T20:56:12.692Z,947.4
2016-04-09T20:57:12.694Z,947.36
2016-04-09T20:58:12.681Z,947.45
2016-04-09T20:59:12.669Z,947.42
2016-04-09T21:00:12.655Z,947.36
2016-04-09T21:01:12.861Z,947.34
2016-04-09T21:02:13.458Z,947.34
2016-04-09T21:03:13.600Z,947.35
2016-04-09T21:04:12.822Z,947.37
2016-04-09T21:05:12.778Z,947.39
2016-04-09T21:06:13.452Z,947.34
2016-04-09T21:07:12.565Z,947.37
2016-04-09T21:08:13.318Z,947.39
2016-04-09T21:09:13.320Z,947.35
2016-04-09T21:10:12.713Z,947.41
2016-04-09T21:11:12.529Z,947.32
2016-04-09T21:12:13.422Z,947.38
2016-04-09T21:13:12.487Z,947.38
2016-04-09T21:14:12.459Z,947.37
2016-04-09T21:15:13.476Z,947.37
2016-04-09T21:16:12.448Z,947.36
2016-04-09T21:17:13.264Z,947.38
2016-04-09T21:18:12.375Z,947.35
2016-04-09T21:19:12.332Z,947.37
2016-04-09T21:20:13.100Z,947.36
2016-04-09T21:21:12.603Z,947.36
2016-04-09T21:22:13.152Z,947.36
2016-04-09T21:23:13.045Z,947.36
2016-04-09T21:24:13.126Z,947.35
2016-04-09T21:25:12.519Z,947.39
2016-04-09T21:26:13.288Z,947.35
2016-04-09T21:27:12.509Z,947.39
2016-04-09T21:28:12.480Z,947.32
2016-04-09T21:29:12.281Z,947.36
2016-04-09T21:30:12.439Z,947.38
2016-04-09T21:31:13.130Z,947.36
2016-04-09T21:32:12.242Z,947.36
2016-04-09T21:33:12.228Z,947.4
2016-04-09T21:34:13.388Z,947.37
2016-04-09T21:35:12.421Z,947.35
2016-04-09T21:36:12.408Z,947.38
2016-04-09T21:37:13.317Z,947.36
2016-04-09T21:38:12.194Z,947.38
2016-04-09T21:39:13.057Z,947.44
2016-04-09T21:40:13.591Z,947.48
2016-04-09T21:41:12.187Z,947.44
2016-04-09T21:42:12.878Z,947.4
2016-04-09T21:43:12.849Z,947.42
2016-04-09T21:44:12.540Z,947.41
2016-04-09T21:45:13.088Z,947.41
2016-04-09T21:46:12.279Z,947.44
2016-04-09T21:47:12.923Z,947.42
2016-04-09T21:48:12.003Z,947.46
2016-04-09T21:49:12.756Z,947.42
2016-04-09T21:50:12.226Z,947.44
2016-04-09T21:51:12.012Z,947.48
2016-04-09T21:52:12.187Z,947.47
2016-04-09T21:53:11.985Z,947.53
2016-04-09T21:54:11.942Z,947.54
2016-04-09T21:55:13.115Z,947.51
2016-04-09T21:56:13.040Z,947.51
2016-04-09T21:57:13.950Z,947.53
2016-04-09T21:58:12.952Z,947.52
2016-04-09T21:59:11.939Z,947.53
2016-04-09T22:00:11.832Z,947.51
2016-04-09T22:01:13.053Z,947.52
2016-04-09T22:02:11.885Z,947.52
2016-04-09T22:03:11.856Z,947.54
2016-04-09T22:04:11.858Z,947.49
2016-04-09T22:05:12.846Z,947.48
2016-04-09T22:06:12.802Z,947.53
2016-04-09T22:07:11.805Z,947.55
2016-04-09T22:08:11.808Z,947.52
2016-04-09T22:09:12.950Z,947.54
2016-04-09T22:10:11.780Z,947.51
2016-04-09T22:11:11.893Z,947.51
2016-04-09T22:12:11.755Z,947.48
2016-04-09T22:13:11.758Z,947.52
2016-04-09T22:14:12.933Z,947.47
2016-04-09T22:15:11.732Z,947.5
2016-04-09T22:16:11.938Z,947.47
2016-04-09T22:17:12.675Z,947.48
2016-04-09T22:18:12.615Z,947.49
2016-04-09T22:19:11.680Z,947.48
2016-04-09T22:20:11.682Z,947.52
2016-04-09T22:21:12.467Z,947.54
2016-04-09T22:22:11.610Z,947.57
2016-04-09T22:23:11.645Z,947.51
2016-04-09T22:24:11.554Z,947.55
2016-04-09T22:25:11.806Z,947.54
2016-04-09T22:26:11.778Z,947.54
2016-04-09T22:27:11.530Z,947.53
2016-04-09T22:28:12.345Z,947.56
2016-04-09T22:29:12.332Z,947.56
2016-04-09T22:30:11.991Z,947.53
2016-04-09T22:31:12.322Z,947.54
2016-04-09T22:32:11.559Z,947.57
2016-04-09T22:33:12.468Z,947.59
2016-04-09T22:34:11.502Z,947.57
2016-04-09T22:35:12.285Z,947.59
2016-04-09T22:36:12.242Z,947.57
2016-04-09T22:37:12.323Z,947.6
2016-04-09T22:38:12.216Z,947.56
2016-04-09T22:40:12.377Z,947.57
2016-04-09T22:41:11.427Z,947.61
2016-04-09T22:42:12.133Z,947.66
2016-04-09T22:43:12.229Z,947.67
2016-04-09T22:44:11.341Z,947.7
2016-04-09T22:45:12.390Z,947.67
2016-04-09T22:46:12.331Z,947.67
2016-04-09T22:47:12.163Z,947.66
2016-04-09T22:48:12.133Z,947.64
2016-04-09T22:49:11.308Z,947.7
2016-04-09T22:50:11.311Z,947.71
2016-04-09T22:51:12.095Z,947.68
2016-04-09T22:52:12.082Z,947.72
2016-04-09T22:53:11.271Z,947.66
2016-04-09T22:54:12.056Z,947.67
2016-04-09T22:55:11.276Z,947.66
2016-04-09T22:56:11.265Z,947.68
2016-04-09T22:57:11.236Z,947.66
2016-04-09T22:58:12.019Z,947.67
2016-04-09T22:59:11.195Z,947.65
2016-04-09T23:00:11.978Z,947.7
2016-04-09T23:01:11.167Z,947.64
2016-04-09T23:02:11.546Z,947.69
2016-04-09T23:03:11.158Z,947.68
2016-04-09T23:04:12.161Z,947.64
2016-04-09T23:05:11.116Z,947.61
2016-04-09T23:06:11.135Z,947.62
2016-04-09T23:07:11.950Z,947.66
2016-04-09T23:08:11.329Z,947.61
2016-04-09T23:09:11.078Z,947.64
2016-04-09T23:10:11.049Z,947.65
2016-04-09T23:11:11.068Z,947.61
2016-04-09T23:12:11.695Z,947.6
2016-04-09T23:13:11.260Z,947.64
2016-04-09T23:14:11.107Z,947.59
2016-04-09T23:15:10.999Z,947.61
2016-04-09T23:16:10.987Z,947.65
2016-04-09T23:17:18.254Z,947.63
2016-04-09T23:18:11.195Z,947.64
2016-04-09T23:19:11.918Z,947.64
2016-04-09T23:20:10.842Z,947.64
2016-04-09T23:21:10.845Z,947.64
2016-04-09T23:22:10.862Z,947.67
2016-04-09T23:23:11.865Z,947.65
2016-04-09T23:24:11.633Z,947.68
2016-04-09T23:25:12.042Z,947.65
2016-04-09T23:26:11.826Z,947.68
2016-04-09T23:27:11.656Z,947.68
2016-04-09T23:28:10.831Z,947.72
2016-04-09T23:29:10.819Z,947.71
2016-04-09T23:30:11.586Z,947.65
2016-04-09T23:31:10.762Z,947.69
2016-04-09T23:32:11.405Z,947.67
2016-04-09T23:33:11.486Z,947.64
2016-04-09T23:34:10.770Z,947.65
2016-04-09T23:35:10.757Z,947.66
2016-04-09T23:36:10.744Z,947.63
2016-04-09T23:37:11.949Z,947.67
2016-04-09T23:38:10.702Z,947.65
2016-04-09T23:39:10.689Z,947.68
2016-04-09T23:40:10.677Z,947.65
2016-04-09T23:42:11.494Z,947.71
2016-04-09T23:43:11.403Z,947.73
2016-04-09T23:44:10.625Z,947.71
2016-04-09T23:46:10.599Z,947.69
2016-04-09T23:47:10.585Z,947.65
2016-04-09T23:48:10.573Z,947.63
2016-04-09T23:49:11.076Z,947.64
2016-04-09T23:50:11.562Z,947.62
2016-04-09T23:51:11.363Z,947.66
2016-04-09T23:52:10.505Z,947.65
2016-04-09T23:53:10.508Z,947.63
2016-04-09T23:54:10.496Z,947.66
2016-04-09T23:55:10.482Z,947.64
2016-04-09T23:56:11.501Z,947.72
2016-04-09T23:57:11.550Z,947.7
2016-04-09T23:58:10.459Z,947.71
2016-04-09T23:59:11.196Z,947.71
